Time;durP1;ratioP1;P1;durP2;ratioP2;P2;SDS_P1;SDS_P2;PMS_P1;PMS_P2;Temp;Humidity;BMP_temperature;BMP_pressure;BME280_temperature;BME280_humidity;BME280_pressure;Samples;Min_cycle;Max_cycle;Signal;HPM_P1;HPM_P2
2024/03/20 00:01:33;;;;;;;2.78;1.77;;;6.10;1.00;;;;;;5011791;28;20029;-76
2024/03/20 00:04:00;;;;;;;1.83;1.73;;;6.00;1.00;;;;;;5007727;28;20061;-76
2024/03/20 00:06:26;;;;;;;1.30;1.23;;;6.10;49.20;;;;;;4996698;28;20030;-76
2024/03/20 00:08:52;;;;;;;2.88;2.67;;;6.10;99.90;;;;;;4997989;28;20045;-75
2024/03/20 00:11:19;;;;;;;3.50;3.20;;;6.30;99.90;;;;;;4991848;28;20054;-76
2024/03/20 00:13:46;;;;;;;0.95;0.95;;;6.20;99.90;;;;;;5013140;28;20029;-76
2024/03/20 00:16:12;;;;;;;2.15;1.95;;;6.20;99.90;;;;;;4994608;28;20399;-76
2024/03/20 00:18:38;;;;;;;2.97;2.65;;;6.10;99.90;;;;;;5009671;28;20057;-75
2024/03/20 00:21:05;;;;;;;2.65;2.45;;;6.10;99.90;;;;;;4994764;28;20204;-76
2024/03/20 00:23:32;;;;;;;3.15;2.90;;;6.20;99.90;;;;;;5008708;28;20041;-76
2024/03/20 00:26:00;;;;;;;4.40;3.47;;;6.10;99.90;;;;;;4994389;28;20049;-76
2024/03/20 00:28:26;;;;;;;2.10;1.95;;;6.10;99.90;;;;;;5011302;28;20471;-76
2024/03/20 00:30:53;;;;;;;2.13;1.92;;;6.10;99.90;;;;;;5008615;28;20038;-76
2024/03/20 00:33:19;;;;;;;5.30;3.33;;;6.00;84.70;;;;;;5009632;28;20034;-76
2024/03/20 00:35:45;;;;;;;7.07;4.32;;;6.00;88.30;;;;;;4993294;28;20405;-75
2024/03/20 00:38:11;;;;;;;4.75;3.95;;;6.00;97.40;;;;;;5004960;28;20038;-76
2024/03/20 00:40:38;;;;;;;3.97;2.22;;;5.90;68.30;;;;;;5010629;28;20037;-76
2024/03/20 00:43:04;;;;;;;1.67;1.55;;;5.80;65.10;;;;;;4986899;28;20038;-76
2024/03/20 00:45:31;;;;;;;2.58;2.38;;;5.80;99.90;;;;;;4993060;28;20026;-76
2024/03/20 00:47:57;;;;;;;1.13;1.10;;;5.80;99.90;;;;;;5005157;28;20041;-76
2024/03/20 00:50:23;;;;;;;7.63;3.85;;;5.80;99.90;;;;;;5003760;28;20026;-76
2024/03/20 00:52:49;;;;;;;1.90;1.80;;;5.80;99.90;;;;;;5005865;28;20033;-76
2024/03/20 00:55:16;;;;;;;4.25;2.83;;;5.80;99.90;;;;;;5011677;28;20018;-76
2024/03/20 00:57:43;;;;;;;4.60;2.22;;;5.80;99.90;;;;;;4992964;28;20061;-76
2024/03/20 01:00:09;;;;;;;1.52;1.42;;;5.80;99.90;;;;;;5009224;28;20049;-76
2024/03/20 01:02:35;;;;;;;2.38;2.17;;;5.70;99.90;;;;;;5003278;28;20037;-76
2024/03/20 01:05:02;;;;;;;4.22;2.63;;;5.70;91.50;;;;;;5007506;28;20048;-75
2024/03/20 01:07:28;;;;;;;2.95;2.75;;;5.60;91.80;;;;;;4988738;28;20471;-76
2024/03/20 01:09:54;;;;;;;2.03;1.90;;;5.60;97.20;;;;;;5011017;28;20038;-75
2024/03/20 01:12:21;;;;;;;2.42;2.33;;;5.60;99.90;;;;;;4992073;28;20053;-76
2024/03/20 01:14:47;;;;;;;3.22;2.92;;;5.70;99.90;;;;;;4976395;28;20050;-76
2024/03/20 01:17:15;;;;;;;8.70;4.53;;;5.50;95.20;;;;;;5006670;28;20042;-76
2024/03/20 01:19:42;;;;;;;3.42;3.13;;;5.40;90.20;;;;;;5001726;28;20045;-75
2024/03/20 01:22:10;;;;;;;2.38;2.17;;;5.40;99.90;;;;;;4983456;28;20026;-76
2024/03/20 01:24:36;;;;;;;3.58;3.35;;;5.40;99.90;;;;;;5011553;28;20053;-75
2024/03/20 01:27:03;;;;;;;4.40;3.10;;;5.50;99.90;;;;;;5010035;28;20029;-76
2024/03/20 01:29:29;;;;;;;3.83;3.60;;;5.60;99.90;;;;;;5018676;28;20379;-75
2024/03/20 01:31:55;;;;;;;5.90;5.45;;;5.60;99.90;;;;;;4996596;28;20506;-75
2024/03/20 01:34:22;;;;;;;2.15;2.05;;;5.50;99.90;;;;;;5008088;28;20038;-75
2024/03/20 01:36:50;;;;;;;7.30;3.60;;;5.40;99.90;;;;;;4972244;28;20062;-75
2024/03/20 01:39:17;;;;;;;3.40;3.20;;;5.40;99.90;;;;;;5005907;28;20133;-76
2024/03/20 01:41:45;;;;;;;4.72;4.32;;;5.40;99.90;;;;;;5010545;28;20030;-75
2024/03/20 01:44:12;;;;;;;16.55;5.28;;;5.30;99.90;;;;;;4991677;28;20038;-75
2024/03/20 01:46:40;;;;;;;3.40;3.20;;;5.50;99.90;;;;;;5009506;28;20049;-75
2024/03/20 01:49:07;;;;;;;3.28;2.65;;;5.50;99.90;;;;;;4993201;28;20066;-76
2024/03/20 01:51:34;;;;;;;3.38;3.10;;;5.60;99.90;;;;;;5005057;28;20022;-76
2024/03/20 01:54:02;;;;;;;6.57;4.57;;;5.60;99.90;;;;;;5006101;28;20391;-76
2024/03/20 01:56:28;;;;;;;2.85;2.35;;;5.70;99.90;;;;;;4991191;28;20042;-76
2024/03/20 01:58:55;;;;;;;2.72;2.47;;;5.70;99.90;;;;;;5004108;28;20538;-76
2024/03/20 02:01:21;;;;;;;6.70;4.28;;;5.70;99.90;;;;;;4988829;28;20034;-75
2024/03/20 02:03:48;;;;;;;3.58;2.72;;;5.80;99.90;;;;;;5008607;28;20376;-76
2024/03/20 02:06:23;;;;;;;4.55;2.85;;;5.70;99.90;;;;;;5004007;28;20033;-75
2024/03/20 02:08:53;;;;;;;4.18;3.83;;;5.60;99.90;;;;;;5010328;28;20041;-75
2024/03/20 02:11:20;;;;;;;5.30;3.60;;;5.60;99.90;;;;;;4990567;28;20046;-75
2024/03/20 02:13:52;;;;;;;9.00;3.83;;;5.60;99.90;;;;;;5009443;28;20375;-76
2024/03/20 02:16:20;;;;;;;13.45;6.40;;;5.60;99.90;;;;;;5009234;28;20491;-75
2024/03/20 02:18:47;;;;;;;3.67;2.35;;;5.70;99.90;;;;;;4986034;28;20038;-75
2024/03/20 02:21:16;;;;;;;4.05;3.40;;;5.70;99.90;;;;;;4997160;28;20048;-76
2024/03/20 02:23:42;;;;;;;3.03;2.70;;;5.50;90.00;;;;;;4982450;28;20046;-75
2024/03/20 02:26:09;;;;;;;10.82;3.65;;;5.50;47.30;;;;;;4985548;28;20034;-76
2024/03/20 02:28:39;;;;;;;3.75;3.42;;;5.40;46.20;;;;;;5000511;28;20038;-76
2024/03/20 02:31:09;;;;;;;3.83;2.75;;;5.40;60.10;;;;;;5007597;28;20471;-76
2024/03/20 02:33:36;;;;;;;5.40;3.40;;;5.50;99.90;;;;;;5005062;28;20030;-76
2024/03/20 02:36:03;;;;;;;3.15;2.88;;;5.60;99.90;;;;;;5005342;28;20042;-76
2024/03/20 02:38:31;;;;;;;2.28;2.08;;;5.60;99.90;;;;;;5003972;28;20568;-76
2024/03/20 02:40:58;;;;;;;2.15;1.95;;;5.60;94.20;;;;;;5009064;28;20052;-75
2024/03/20 02:43:25;;;;;;;3.28;2.58;;;5.60;68.40;;;;;;5008665;28;20022;-76
2024/03/20 02:45:51;;;;;;;2.38;2.20;;;5.60;47.00;;;;;;5006538;28;20053;-76
2024/03/20 02:48:18;;;;;;;6.70;3.60;;;5.70;31.60;;;;;;5009914;28;20037;-75
2024/03/20 02:50:44;;;;;;;4.93;2.78;;;5.60;8.20;;;;;;4994649;28;20030;-76
2024/03/20 02:53:11;;;;;;;7.50;6.22;;;5.60;1.00;;;;;;5014279;28;20034;-76
2024/03/20 02:55:39;;;;;;;2.78;2.50;;;5.60;1.00;;;;;;5013507;28;20478;-75
2024/03/20 02:58:06;;;;;;;4.43;2.92;;;5.70;1.00;;;;;;5014877;28;20045;-76
2024/03/20 03:00:32;;;;;;;2.25;2.15;;;5.70;1.00;;;;;;4995291;28;20046;-76
2024/03/20 03:02:59;;;;;;;3.80;3.60;;;5.70;20.30;;;;;;5011452;28;20038;-76
2024/03/20 03:05:26;;;;;;;4.75;4.38;;;5.70;15.60;;;;;;4990182;28;20505;-76
2024/03/20 03:07:53;;;;;;;4.18;3.88;;;5.60;27.20;;;;;;5010349;28;20387;-76
2024/03/20 03:10:21;;;;;;;6.50;5.85;;;5.40;34.60;;;;;;5013027;28;20451;-76
2024/03/20 03:12:49;;;;;;;3.25;3.05;;;5.30;95.50;;;;;;5013591;28;20419;-75
2024/03/20 03:15:16;;;;;;;13.73;5.30;;;5.30;99.90;;;;;;5010455;28;20038;-76
2024/03/20 03:17:50;;;;;;;3.67;3.45;;;5.20;99.90;;;;;;5011414;28;20026;-76
2024/03/20 03:20:19;;;;;;;6.70;3.38;;;5.10;99.90;;;;;;5009248;28;20144;-76
2024/03/20 03:22:46;;;;;;;4.63;3.70;;;5.10;99.90;;;;;;5005940;28;20040;-76
2024/03/20 03:25:12;;;;;;;8.85;5.43;;;5.20;99.90;;;;;;5013963;28;20491;-76
2024/03/20 03:27:39;;;;;;;4.93;4.50;;;5.10;99.90;;;;;;4994391;28;20057;-76
2024/03/20 03:30:08;;;;;;;3.15;2.95;;;5.00;99.90;;;;;;4977824;28;20050;-76
2024/03/20 03:32:38;;;;;;;5.28;4.88;;;4.90;99.90;;;;;;5012421;28;20376;-76
2024/03/20 03:35:06;;;;;;;2.83;2.55;;;4.80;99.90;;;;;;5004029;28;20037;-74
2024/03/20 03:37:33;;;;;;;4.05;3.50;;;4.80;99.90;;;;;;5018814;28;20026;-76
2024/03/20 03:40:00;;;;;;;7.53;3.83;;;4.80;99.90;;;;;;5025197;28;20038;-76
2024/03/20 03:42:29;;;;;;;5.38;4.57;;;4.90;99.90;;;;;;4995541;28;20038;-76
2024/03/20 03:44:55;;;;;;;4.80;3.83;;;4.90;99.90;;;;;;5013221;28;20033;-76
2024/03/20 03:47:21;;;;;;;2.72;2.53;;;5.00;99.90;;;;;;4994616;28;20046;-76
2024/03/20 03:49:48;;;;;;;5.65;4.22;;;5.00;99.90;;;;;;5007111;28;21483;-76
2024/03/20 03:52:14;;;;;;;1.23;1.20;;;4.90;99.90;;;;;;5004408;28;20050;-76
2024/03/20 03:54:40;;;;;;;4.07;3.88;;;4.90;99.90;;;;;;5012176;28;20030;-76
2024/03/20 03:57:06;;;;;;;12.10;4.45;;;4.90;99.90;;;;;;5011811;28;20030;-76
2024/03/20 03:59:33;;;;;;;3.95;3.47;;;4.80;99.90;;;;;;4998449;28;20161;-76
2024/03/20 04:01:59;;;;;;;2.53;2.38;;;4.90;99.90;;;;;;5011310;28;20391;-76
2024/03/20 04:04:25;;;;;;;4.50;4.15;;;4.90;99.90;;;;;;4993513;28;20045;-76
2024/03/20 04:06:51;;;;;;;3.17;2.92;;;4.90;99.90;;;;;;5000478;28;20042;-76
2024/03/20 04:09:17;;;;;;;6.18;3.72;;;4.90;99.90;;;;;;4987285;28;20420;-76
2024/03/20 04:11:44;;;;;;;17.63;2.67;;;4.90;99.90;;;;;;4978959;28;20058;-76
2024/03/20 04:14:10;;;;;;;5.47;4.28;;;4.80;99.90;;;;;;5013330;28;20376;-76
2024/03/20 04:16:36;;;;;;;3.78;2.60;;;4.70;99.90;;;;;;4995550;28;20026;-76
2024/03/20 04:19:05;;;;;;;5.40;4.72;;;4.80;99.90;;;;;;4994163;28;20045;-75
2024/03/20 04:21:31;;;;;;;3.60;2.10;;;4.80;99.90;;;;;;5003653;28;20072;-75
2024/03/20 04:23:57;;;;;;;3.80;3.55;;;4.80;99.90;;;;;;5010172;28;20459;-75
2024/03/20 04:26:24;;;;;;;33.55;3.72;;;4.90;99.90;;;;;;5012957;28;20034;-76
2024/03/20 04:28:50;;;;;;;2.53;2.10;;;4.80;99.90;;;;;;5011200;28;20033;-76
2024/03/20 04:31:16;;;;;;;3.30;2.22;;;4.80;99.90;;;;;;4988146;28;20039;-76
2024/03/20 04:33:43;;;;;;;2.03;1.85;;;4.80;99.90;;;;;;5009940;28;20039;-76
2024/03/20 04:36:10;;;;;;;8.60;4.30;;;4.80;96.90;;;;;;5007334;28;20053;-76
2024/03/20 04:38:37;;;;;;;6.78;2.35;;;4.70;69.80;;;;;;5006829;28;20050;-76
2024/03/20 04:41:04;;;;;;;3.40;2.80;;;4.60;41.70;;;;;;5009301;28;20045;-76
2024/03/20 04:43:34;;;;;;;5.00;3.33;;;4.50;27.00;;;;;;5010207;28;20045;-76
2024/03/20 04:46:00;;;;;;;5.07;3.15;;;4.40;14.90;;;;;;5008731;28;20041;-76
2024/03/20 04:48:26;;;;;;;2.58;2.33;;;4.40;13.50;;;;;;5008578;28;20037;-75
2024/03/20 04:50:53;;;;;;;3.22;2.92;;;4.40;28.50;;;;;;5003426;28;20041;-76
2024/03/20 04:53:19;;;;;;;2.97;2.58;;;4.40;33.90;;;;;;5010032;28;20029;-76
2024/03/20 04:55:46;;;;;;;5.18;3.63;;;4.30;26.40;;;;;;5011515;28;20471;-76
2024/03/20 04:58:13;;;;;;;3.38;2.90;;;4.30;40.70;;;;;;5012806;28;20395;-76
2024/03/20 05:00:39;;;;;;;3.35;2.95;;;4.40;80.90;;;;;;5008137;28;20088;-76
2024/03/20 05:03:05;;;;;;;3.42;2.55;;;4.50;97.90;;;;;;5007279;28;20414;-76
2024/03/20 05:05:32;;;;;;;1.38;1.25;;;4.40;99.50;;;;;;5005241;28;20030;-76
2024/03/20 05:07:58;;;;;;;3.60;2.90;;;4.40;99.80;;;;;;5000375;28;20045;-76
2024/03/20 05:10:24;;;;;;;12.40;1.88;;;4.40;92.80;;;;;;5008793;28;20057;-76
2024/03/20 05:12:50;;;;;;;4.15;3.70;;;4.40;81.20;;;;;;5003944;28;20041;-75
2024/03/20 05:15:16;;;;;;;10.98;3.97;;;4.40;44.70;;;;;;5008309;28;20052;-76
2024/03/20 05:17:43;;;;;;;1.77;1.67;;;4.30;22.90;;;;;;5010100;28;20045;-75
2024/03/20 05:20:10;;;;;;;2.47;2.30;;;4.30;17.60;;;;;;5005174;28;20038;-76
2024/03/20 05:22:36;;;;;;;3.00;2.55;;;4.30;32.20;;;;;;4998228;28;20645;-76
2024/03/20 05:25:04;;;;;;;1.48;1.23;;;4.30;41.20;;;;;;5011301;28;20026;-75
2024/03/20 05:27:30;;;;;;;4.93;3.05;;;4.20;28.40;;;;;;5011197;28;20038;-75
2024/03/20 05:29:56;;;;;;;3.10;2.78;;;4.20;16.90;;;;;;5011623;28;20057;-75
2024/03/20 05:32:22;;;;;;;1.77;1.65;;;4.20;22.50;;;;;;5005561;28;20037;-76
2024/03/20 05:34:48;;;;;;;2.42;2.25;;;4.20;26.20;;;;;;5004716;28;20030;-75
2024/03/20 05:37:16;;;;;;;2.13;1.92;;;4.30;36.20;;;;;;4991880;28;20034;-76
2024/03/20 05:39:42;;;;;;;2.97;1.40;;;4.20;24.60;;;;;;5011192;28;20514;-76
2024/03/20 05:42:08;;;;;;;2.10;1.67;;;4.20;20.10;;;;;;5010184;28;20042;-76
2024/03/20 05:44:34;;;;;;;1.65;1.55;;;4.20;20.90;;;;;;4991962;28;20049;-76
2024/03/20 05:47:00;;;;;;;3.20;3.00;;;4.20;32.80;;;;;;5006745;28;20037;-76
2024/03/20 05:49:26;;;;;;;2.90;2.70;;;4.30;43.60;;;;;;5004237;28;20042;-76
2024/03/20 05:51:53;;;;;;;2.15;2.05;;;4.30;54.80;;;;;;4993104;28;20042;-75
2024/03/20 05:54:19;;;;;;;1.92;1.83;;;4.40;57.80;;;;;;5010717;28;20041;-76
2024/03/20 05:56:45;;;;;;;2.42;2.15;;;4.40;49.90;;;;;;5010018;28;20038;-76
2024/03/20 05:59:14;;;;;;;2.60;2.38;;;4.40;44.60;;;;;;5010683;28;20038;-76
2024/03/20 06:01:41;;;;;;;0.90;0.90;;;4.50;39.00;;;;;;5006069;28;20033;-76
2024/03/20 06:04:08;;;;;;;5.07;1.98;;;4.60;22.80;;;;;;5007893;28;20037;-76
2024/03/20 06:06:35;;;;;;;2.75;2.53;;;4.60;1.60;;;;;;5003811;28;20148;-76
2024/03/20 06:09:01;;;;;;;5.45;3.35;;;4.60;1.00;;;;;;5008488;28;20034;-76
2024/03/20 06:11:27;;;;;;;1.23;1.15;;;4.70;1.00;;;;;;5007944;28;20534;-75
2024/03/20 06:13:53;;;;;;;3.10;2.70;;;4.80;1.00;;;;;;5009261;28;20046;-76
2024/03/20 06:16:20;;;;;;;2.38;2.28;;;4.90;1.00;;;;;;5004982;28;20042;-76
2024/03/20 06:18:46;;;;;;;2.22;1.80;;;5.00;1.00;;;;;;5003368;28;20038;-74
2024/03/20 06:21:12;;;;;;;6.38;1.48;;;5.10;1.00;;;;;;4998530;28;20038;-76
2024/03/20 06:23:38;;;;;;;4.25;3.88;;;5.10;1.00;;;;;;5002718;28;20487;-76
2024/03/20 06:26:04;;;;;;;3.15;2.90;;;5.10;99.90;;;;;;5010926;28;20041;-76
2024/03/20 06:28:30;;;;;;;1.95;1.80;;;5.20;99.90;;;;;;5012386;28;20042;-76
2024/03/20 06:30:57;;;;;;;2.28;2.08;;;5.20;99.90;;;;;;5016742;28;20033;-76
2024/03/20 06:33:24;;;;;;;6.13;3.85;;;5.30;99.90;;;;;;5010723;28;20049;-76
2024/03/20 06:35:50;;;;;;;4.60;4.00;;;5.40;99.90;;;;;;5007447;28;20043;-76
2024/03/20 06:38:19;;;;;;;6.90;2.92;;;5.60;99.90;;;;;;4986761;28;20114;-73
2024/03/20 06:40:46;;;;;;;3.15;2.35;;;5.80;99.90;;;;;;5014511;28;20045;-76
2024/03/20 06:43:15;;;;;;;5.20;2.55;;;5.90;99.90;;;;;;4995933;28;20416;-77
2024/03/20 06:45:47;;;;;;;2.40;2.10;;;6.10;99.90;;;;;;5012071;28;20030;-75
2024/03/20 06:48:15;;;;;;;1.83;1.73;;;6.20;99.90;;;;;;4989606;28;20042;-75
2024/03/20 06:50:46;;;;;;;6.55;4.05;;;6.40;99.90;;;;;;5005438;28;20026;-75
2024/03/20 06:53:13;;;;;;;3.80;3.25;;;6.70;99.90;;;;;;5004711;28;20038;-75
2024/03/20 06:55:43;;;;;;;3.47;3.17;;;6.90;99.90;;;;;;5013730;28;20271;-75
2024/03/20 06:58:12;;;;;;;2.75;2.38;;;7.10;99.90;;;;;;4978749;28;20380;-75
2024/03/20 07:00:40;;;;;;;1.92;1.83;;;7.30;99.90;;;;;;5016133;28;20626;-75
2024/03/20 07:03:06;;;;;;;2.05;1.92;;;7.40;98.00;;;;;;5013950;28;20025;-75
2024/03/20 07:05:32;;;;;;;2.35;2.15;;;7.40;94.60;;;;;;5005768;28;20030;-75
2024/03/20 07:07:58;;;;;;;2.03;1.85;;;7.50;99.90;;;;;;5009748;28;20041;-75
2024/03/20 07:10:24;;;;;;;3.13;2.25;;;7.50;99.90;;;;;;4977987;28;20038;-76
2024/03/20 07:12:50;;;;;;;3.10;2.05;;;7.50;99.90;;;;;;5015730;28;20057;-74
2024/03/20 07:15:17;;;;;;;2.40;2.00;;;7.60;99.90;;;;;;5010894;28;20034;-75
2024/03/20 07:17:45;;;;;;;4.72;1.58;;;7.50;99.90;;;;;;4996162;28;20387;-75
2024/03/20 07:20:11;;;;;;;3.97;2.58;;;7.50;99.90;;;;;;5009435;28;20042;-75
2024/03/20 07:22:38;;;;;;;2.58;2.10;;;7.60;99.90;;;;;;5000907;28;20448;-75
2024/03/20 07:25:07;;;;;;;1.27;1.17;;;7.90;99.90;;;;;;5012721;28;20052;-75
2024/03/20 07:27:37;;;;;;;2.88;2.40;;;8.10;99.90;;;;;;4990605;28;20392;-75
2024/03/20 07:30:03;;;;;;;1.48;1.10;;;8.20;99.90;;;;;;5015647;28;20383;-75
2024/03/20 07:32:30;;;;;;;2.47;2.28;;;8.40;99.90;;;;;;4993552;28;20045;-75
2024/03/20 07:34:56;;;;;;;1.20;1.10;;;8.60;42.40;;;;;;4995035;28;20030;-75
2024/03/20 07:37:25;;;;;;;6.25;3.55;;;8.70;12.80;;;;;;5002482;28;20030;-75
2024/03/20 07:39:52;;;;;;;2.63;2.42;;;8.70;1.00;;;;;;5008769;28;20033;-76
2024/03/20 07:42:18;;;;;;;1.85;1.75;;;8.70;4.20;;;;;;5009428;28;20069;-76
2024/03/20 07:44:44;;;;;;;2.08;1.95;;;9.10;1.00;;;;;;5011400;28;20044;-76
2024/03/20 07:47:10;;;;;;;2.30;2.15;;;9.20;1.00;;;;;;4991705;28;20052;-75
2024/03/20 07:49:37;;;;;;;1.45;1.35;;;9.40;1.00;;;;;;5011510;28;20439;-75
2024/03/20 07:52:03;;;;;;;1.90;1.75;;;9.50;1.00;;;;;;5011129;28;20038;-75
2024/03/20 07:54:29;;;;;;;2.47;2.28;;;9.60;1.00;;;;;;5012730;28;20030;-75
2024/03/20 07:56:56;;;;;;;1.65;1.55;;;10.10;1.00;;;;;;4994905;28;20041;-76
2024/03/20 07:59:23;;;;;;;2.00;1.60;;;10.40;99.90;;;;;;5012144;28;20044;-76
2024/03/20 08:01:50;;;;;;;0.55;0.55;;;10.50;99.90;;;;;;5011268;28;20040;-76
2024/03/20 08:04:16;;;;;;;1.35;1.25;;;10.30;99.90;;;;;;5012257;28;20042;-76
2024/03/20 08:06:42;;;;;;;2.72;1.63;;;10.20;99.90;;;;;;4998010;28;20219;-75
2024/03/20 08:09:09;;;;;;;1.70;1.60;;;10.30;1.00;;;;;;5021631;28;20033;-76
2024/03/20 08:11:35;;;;;;;3.00;1.10;;;10.60;1.00;;;;;;5015057;28;20041;-75
2024/03/20 08:14:07;;;;;;;0.65;0.65;;;10.90;99.90;;;;;;5011151;28;20472;-75
2024/03/20 08:16:37;;;;;;;2.67;2.00;;;11.10;99.90;;;;;;5010629;28;20037;-75
2024/03/20 08:19:05;;;;;;;3.40;1.63;;;11.30;99.90;;;;;;5007635;28;20053;-74
2024/03/20 08:21:31;;;;;;;2.08;0.98;;;11.50;99.90;;;;;;5004292;28;20050;-75
2024/03/20 08:23:58;;;;;;;1.52;1.40;;;11.40;99.90;;;;;;5005919;28;20034;-75
2024/03/20 08:26:24;;;;;;;1.25;1.23;;;11.60;99.90;;;;;;5011935;28;20030;-75
2024/03/20 08:28:51;;;;;;;6.32;1.52;;;11.50;99.90;;;;;;5011002;28;20475;-75
2024/03/20 08:31:18;;;;;;;1.65;1.30;;;11.70;99.90;;;;;;5008233;28;20049;-75
2024/03/20 08:33:47;;;;;;;1.23;0.75;;;11.70;99.90;;;;;;5006225;28;20053;-74
2024/03/20 08:36:13;;;;;;;0.65;0.65;;;12.00;99.90;;;;;;5003180;28;20033;-74
2024/03/20 08:38:40;;;;;;;1.92;1.05;;;11.70;99.90;;;;;;5002939;28;20049;-75
2024/03/20 08:41:06;;;;;;;0.60;0.60;;;11.80;99.90;;;;;;5010611;28;20046;-74
2024/03/20 08:43:33;;;;;;;5.05;2.10;;;11.90;99.90;;;;;;5018645;28;20069;-74
2024/03/20 08:46:00;;;;;;;0.75;0.75;;;12.10;99.90;;;;;;5015489;28;20053;-74
2024/03/20 08:48:30;;;;;;;4.20;1.75;;;12.70;99.90;;;;;;5012189;28;20034;-74
2024/03/20 08:50:56;;;;;;;5.22;1.35;;;12.80;12.60;;;;;;5013031;28;20033;-74
2024/03/20 08:53:22;;;;;;;8.55;2.10;;;12.70;1.00;;;;;;4988429;28;20038;-74
2024/03/20 08:55:48;;;;;;;2.08;1.00;;;12.60;10.10;;;;;;5015422;28;20049;-75
2024/03/20 08:58:14;;;;;;;1.55;1.25;;;12.70;48.30;;;;;;5013095;28;20033;-75
2024/03/20 09:00:41;;;;;;;1.60;1.48;;;13.10;1.00;;;;;;5010547;28;20037;-75
2024/03/20 09:03:07;;;;;;;2.22;1.85;;;13.40;1.00;;;;;;5011158;28;20030;-75
2024/03/20 09:05:35;;;;;;;1.50;0.75;;;14.00;1.00;;;;;;5003388;28;20037;-75
2024/03/20 09:08:01;;;;;;;4.07;1.45;;;14.50;99.90;;;;;;4996980;28;20026;-74
2024/03/20 09:10:27;;;;;;;2.95;1.42;;;14.40;99.90;;;;;;5010024;28;20472;-75
2024/03/20 09:12:53;;;;;;;2.97;2.22;;;13.60;99.90;;;;;;5010917;28;20050;-74
2024/03/20 09:15:19;;;;;;;2.53;0.90;;;13.80;99.90;;;;;;5012306;28;20033;-75
2024/03/20 09:17:48;;;;;;;1.15;0.98;;;13.90;99.90;;;;;;5015308;28;20475;-75
2024/03/20 09:20:19;;;;;;;1.67;1.58;;;14.20;99.90;;;;;;5004568;28;20505;-75
2024/03/20 09:22:47;;;;;;;3.97;1.90;;;14.60;99.90;;;;;;5004371;28;20050;-75
2024/03/20 09:25:13;;;;;;;3.47;1.98;;;14.40;99.90;;;;;;5012833;28;20044;-75
2024/03/20 09:27:40;;;;;;;2.90;1.67;;;14.70;99.90;;;;;;5011651;28;20034;-75
2024/03/20 09:30:08;;;;;;;22.90;2.95;;;15.10;99.90;;;;;;4993657;28;20053;-74
2024/03/20 09:32:35;;;;;;;3.95;2.13;;;15.00;99.90;;;;;;5010325;28;20026;-74
2024/03/20 09:35:01;;;;;;;9.23;2.58;;;15.00;99.90;;;;;;5008935;28;20038;-74
2024/03/20 09:37:29;;;;;;;2.15;1.25;;;14.50;99.90;;;;;;5003692;28;20037;-75
2024/03/20 09:39:56;;;;;;;3.85;1.83;;;14.60;99.90;;;;;;5007697;28;20033;-75
2024/03/20 09:42:23;;;;;;;2.60;2.20;;;15.10;99.90;;;;;;5010170;28;20061;-75
2024/03/20 09:44:50;;;;;;;3.38;1.80;;;15.80;44.90;;;;;;5010681;28;20474;-74
2024/03/20 09:47:16;;;;;;;2.80;1.15;;;15.80;1.00;;;;;;5007979;28;20030;-75
2024/03/20 09:49:47;;;;;;;1.60;1.50;;;15.30;54.40;;;;;;5003001;28;20411;-74
2024/03/20 09:52:13;;;;;;;2.85;1.77;;;15.00;93.90;;;;;;5004494;28;20042;-75
2024/03/20 09:54:41;;;;;;;4.45;2.13;;;15.70;1.00;;;;;;5007005;28;20038;-74
2024/03/20 09:57:13;;;;;;;1.98;1.30;;;15.30;1.00;;;;;;5011050;28;20048;-75
2024/03/20 09:59:47;;;;;;;7.97;2.63;;;15.20;26.60;;;;;;5008140;28;20042;-74
2024/03/20 10:02:13;;;;;;;2.15;1.33;;;15.20;35.10;;;;;;5007478;28;20045;-75
2024/03/20 10:04:40;;;;;;;2.30;2.08;;;15.30;35.10;;;;;;5007740;28;20045;-74
2024/03/20 10:07:10;;;;;;;1.33;1.17;;;15.70;1.00;;;;;;5005337;28;20034;-75
2024/03/20 10:09:36;;;;;;;3.28;1.90;;;15.70;1.00;;;;;;5006513;28;20040;-74
2024/03/20 10:12:03;;;;;;;3.97;1.48;;;15.50;1.00;;;;;;4996229;28;20515;-75
2024/03/20 10:14:29;;;;;;;1.77;1.10;;;15.30;1.00;;;;;;5009352;28;20037;-75
2024/03/20 10:17:09;;;;;;;4.50;1.77;;;15.50;1.00;;;;;;5009739;28;20034;-75
2024/03/20 10:19:39;;;;;;;1.92;1.30;;;15.80;1.00;;;;;;5003979;28;20045;-75
2024/03/20 10:22:06;;;;;;;2.38;1.40;;;16.20;1.00;;;;;;5000775;28;20038;-74
2024/03/20 10:24:33;;;;;;;0.70;0.70;;;16.30;1.00;;;;;;5008085;28;20037;-75
2024/03/20 10:27:02;;;;;;;1.75;1.38;;;16.00;1.00;;;;;;5011663;28;20041;-74
2024/03/20 10:29:30;;;;;;;1.83;1.50;;;16.00;1.00;;;;;;5009791;28;20050;-75
2024/03/20 10:31:58;;;;;;;0.80;0.80;;;15.90;1.00;;;;;;5006519;28;20038;-75
2024/03/20 10:34:27;;;;;;;1.38;1.10;;;16.00;1.00;;;;;;5008319;28;20060;-74
2024/03/20 10:36:55;;;;;;;2.60;1.15;;;16.10;1.00;;;;;;5004311;28;20505;-75
2024/03/20 10:39:23;;;;;;;1.70;1.27;;;15.70;1.00;;;;;;5007013;28;20034;-74
2024/03/20 10:41:54;;;;;;;2.08;1.58;;;15.70;1.00;;;;;;5007689;28;20057;-75
2024/03/20 10:44:22;;;;;;;1.10;1.00;;;15.80;1.00;;;;;;5007216;28;20057;-75
2024/03/20 10:46:52;;;;;;;1.08;0.90;;;16.20;1.00;;;;;;5007187;28;20061;-74
2024/03/20 10:49:20;;;;;;;0.90;0.68;;;16.20;1.00;;;;;;5005000;28;20042;-74
2024/03/20 10:51:51;;;;;;;1.20;1.10;;;16.20;1.00;;;;;;4999329;28;20033;-74
2024/03/20 10:54:19;;;;;;;2.47;2.22;;;16.50;1.00;;;;;;5001888;28;20336;-74
2024/03/20 10:56:49;;;;;;;1.45;1.35;;;16.70;1.00;;;;;;5009431;28;20383;-75
2024/03/20 10:59:19;;;;;;;0.90;0.88;;;16.50;1.00;;;;;;5010866;28;20029;-75
2024/03/20 11:01:55;;;;;;;;;;;16.50;1.00;;;;;;5007086;28;20041;-75
2024/03/20 11:04:42;;;;;;;7.22;1.67;;;16.70;99.90;;;;;;5004159;28;19987;-75
2024/03/20 11:07:29;;;;;;;1.90;1.45;;;16.60;99.90;;;;;;5002123;28;20038;-74
2024/03/20 11:10:17;;;;;;;2.28;1.85;;;16.80;99.90;;;;;;5008047;28;20033;-75
2024/03/20 11:12:44;;;;;;;1.75;1.15;;;17.10;99.90;;;;;;5012479;28;20045;-74
2024/03/20 11:15:15;;;;;;;1.25;1.13;;;17.40;99.90;;;;;;5012632;28;20049;-75
2024/03/20 11:17:48;;;;;;;1.48;1.33;;;17.40;99.90;;;;;;5013171;28;20029;-75
2024/03/20 11:20:32;;;;;;;1.05;0.93;;;17.30;99.90;;;;;;5002654;28;20490;-74
2024/03/20 11:23:02;;;;;;;2.85;2.28;;;16.90;99.90;;;;;;4999316;28;20113;-74
2024/03/20 11:25:30;;;;;;;4.05;2.47;;;16.90;99.90;;;;;;5014185;28;20045;-75
2024/03/20 11:27:57;;;;;;;3.20;1.08;;;17.00;99.90;;;;;;5011717;28;20030;-75
2024/03/20 11:30:23;;;;;;;1.00;1.00;;;17.00;99.90;;;;;;5011417;28;20415;-75
2024/03/20 11:32:50;;;;;;;1.95;1.45;;;17.30;99.90;;;;;;5008017;28;20034;-75
2024/03/20 11:35:18;;;;;;;1.80;0.95;;;17.40;99.90;;;;;;5009509;28;20034;-75
2024/03/20 11:37:44;;;;;;;1.95;1.80;;;17.40;99.90;;;;;;5006392;28;20026;-75
2024/03/20 11:40:14;;;;;;;2.85;1.90;;;17.40;99.90;;;;;;5008963;28;20038;-75
2024/03/20 11:42:41;;;;;;;3.90;1.95;;;17.40;99.90;;;;;;5010086;28;20049;-75
2024/03/20 11:45:13;;;;;;;0.28;0.28;;;17.70;99.90;;;;;;5010986;28;20037;-75
2024/03/20 11:47:39;;;;;;;3.60;1.63;;;17.90;99.90;;;;;;5008168;28;20050;-75
2024/03/20 11:50:06;;;;;;;2.15;1.48;;;17.90;99.90;;;;;;5006480;28;20487;-74
2024/03/20 11:52:32;;;;;;;6.95;1.60;;;17.90;99.90;;;;;;5004605;28;20061;-75
2024/03/20 11:54:59;;;;;;;4.25;1.55;;;18.10;99.90;;;;;;5013210;28;20037;-75
2024/03/20 11:57:25;;;;;;;1.08;0.98;;;18.30;99.90;;;;;;5012341;28;20029;-75
2024/03/20 11:59:52;;;;;;;2.25;1.08;;;18.20;99.90;;;;;;5011677;28;20049;-75
2024/03/20 12:02:19;;;;;;;8.27;1.92;;;17.90;99.90;;;;;;5007184;28;20072;-74
2024/03/20 12:04:47;;;;;;;1.48;1.20;;;17.80;99.90;;;;;;5006417;28;20472;-75
2024/03/20 12:07:26;;;;;;;1.73;1.23;;;18.10;99.90;;;;;;5006004;28;20030;-74
2024/03/20 12:09:52;;;;;;;3.03;1.15;;;18.20;99.90;;;;;;4986441;28;20045;-75
2024/03/20 12:12:20;;;;;;;2.42;0.65;;;18.20;99.90;;;;;;5013560;28;20411;-75
2024/03/20 12:14:47;;;;;;;1.13;0.85;;;18.40;99.90;;;;;;5011011;28;20053;-75
2024/03/20 12:17:13;;;;;;;10.00;0.70;;;18.80;99.90;;;;;;5009179;28;20030;-75
2024/03/20 12:19:39;;;;;;;1.15;0.70;;;19.00;99.90;;;;;;5008764;28;20482;-75
2024/03/20 12:22:06;;;;;;;0.50;0.50;;;19.10;99.90;;;;;;5003143;28;20383;-75
2024/03/20 12:24:32;;;;;;;1.02;0.50;;;18.90;99.90;;;;;;5005523;28;20064;-76
2024/03/20 12:26:58;;;;;;;1.02;0.95;;;18.80;99.90;;;;;;5012265;28;20046;-74
2024/03/20 12:29:24;;;;;;;0.32;0.32;;;18.80;99.90;;;;;;4989432;28;20467;-75
2024/03/20 12:31:51;;;;;;;1.48;0.63;;;18.50;99.90;;;;;;5009275;28;20034;-75
2024/03/20 12:34:20;;;;;;;0.57;0.57;;;18.80;99.90;;;;;;5003178;28;20427;-73
2024/03/20 12:36:46;;;;;;;5.88;1.95;;;19.10;99.90;;;;;;5008569;28;20053;-75
2024/03/20 12:39:13;;;;;;;1.92;1.55;;;19.10;99.90;;;;;;5005964;28;20037;-73
2024/03/20 12:41:40;;;;;;;0.65;0.65;;;19.10;99.90;;;;;;5011197;28;20054;-73
2024/03/20 12:44:08;;;;;;;2.20;0.93;;;19.00;99.90;;;;;;5011686;28;20455;-74
2024/03/20 12:46:35;;;;;;;0.60;0.60;;;18.90;99.90;;;;;;5010070;28;20030;-74
2024/03/20 12:49:02;;;;;;;0.80;0.50;;;18.80;99.90;;;;;;4999626;28;20053;-73
2024/03/20 12:51:28;;;;;;;1.60;1.23;;;18.70;99.90;;;;;;5002312;28;20049;-74
2024/03/20 12:53:55;;;;;;;3.30;0.30;;;18.70;99.90;;;;;;5006797;28;20553;-74
2024/03/20 12:56:21;;;;;;;0.47;0.43;;;18.50;99.90;;;;;;5012074;28;20065;-74